createdAt,value
2022-09-26T00:00:49.393Z,95061.97
2022-09-26T00:03:16.244Z,95064.56
2022-09-26T00:05:43.036Z,95068.25
2022-09-26T00:08:09.930Z,95060.97
2022-09-26T00:10:36.739Z,95063.34
2022-09-26T00:13:03.700Z,95048.97
2022-09-26T00:15:31.448Z,95058.44
2022-09-26T00:17:58.336Z,95056.22
2022-09-26T00:20:25.021Z,95044.13
2022-09-26T00:22:51.806Z,95052.06
2022-09-26T00:25:19.486Z,95046.63
2022-09-26T00:27:46.170Z,95041.22
2022-09-26T00:30:13.056Z,95047.28
2022-09-26T00:32:40.050Z,95053.56
2022-09-26T00:35:07.767Z,95051.84
2022-09-26T00:37:35.304Z,95054.22
2022-09-26T00:40:02.215Z,95040.97
2022-09-26T00:42:28.909Z,95038.06
2022-09-26T00:44:56.804Z,95031.59
2022-09-26T00:47:39.063Z,95021.41
2022-09-26T00:50:34.910Z,95038.69
2022-09-26T00:53:14.414Z,95037.63
2022-09-26T00:55:48.120Z,95035.38
2022-09-26T00:58:27.272Z,95030.13
2022-09-26T01:00:55.696Z,95029.84
2022-09-26T01:03:24.091Z,95015.72
2022-09-26T01:05:51.339Z,95038.06
2022-09-26T01:08:25.507Z,95038.09
2022-09-26T01:10:53.561Z,95035.69
2022-09-26T01:13:21.991Z,95022.88
2022-09-26T01:15:49.052Z,95013.75
2022-09-26T01:18:15.799Z,95023.56
2022-09-26T01:21:08.807Z,95024.72
2022-09-26T01:23:58.205Z,95016.28
2022-09-26T01:26:25.149Z,95027.88
2022-09-26T01:29:17.193Z,95018.06
2022-09-26T01:32:56.656Z,95018.84
2022-09-26T01:36:03.241Z,95022.97
2022-09-26T01:38:44.648Z,95019.53
2022-09-26T01:41:21.695Z,95025.97
2022-09-26T01:44:07.285Z,95027.75
2022-09-26T01:46:51.115Z,95026.66
2022-09-26T01:49:32.698Z,95022.34
2022-09-26T01:52:19.591Z,95024.78
2022-09-26T01:54:54.976Z,95020.47
2022-09-26T01:57:30.063Z,95014.50
2022-09-26T02:00:02.078Z,95007.22
2022-09-26T02:02:36.066Z,95010.41
2022-09-26T02:05:14.687Z,95007.84
2022-09-26T02:07:45.648Z,95002.53
2022-09-26T02:10:18.616Z,94984.28
2022-09-26T02:12:50.940Z,94993.22
2022-09-26T02:15:20.879Z,95000.50
2022-09-26T02:17:53.630Z,95004.59
2022-09-26T02:20:30.210Z,94996.97
2022-09-26T02:23:03.928Z,94998.16
2022-09-26T02:25:31.191Z,94998.03
2022-09-26T02:27:58.289Z,94997.28
2022-09-26T02:30:26.673Z,94988.22
2022-09-26T02:32:53.654Z,94982.75
2022-09-26T02:35:42.714Z,94981.06
2022-09-26T02:38:11.419Z,94967.44
2022-09-26T02:40:53.741Z,94962.66
2022-09-26T02:43:33.125Z,94966.78
2022-09-26T02:46:08.249Z,94970.53
2022-09-26T02:48:54.052Z,94976.72
2022-09-26T02:51:24.752Z,94969.44
2022-09-26T02:54:13.515Z,94966.84
2022-09-26T02:57:13.968Z,94978.03
2022-09-26T03:00:01.178Z,94970.31
2022-09-26T03:02:38.603Z,94964.78
2022-09-26T03:05:22.182Z,94963.91
2022-09-26T03:07:59.717Z,94949.56
2022-09-26T03:10:31.327Z,94951.81
2022-09-26T03:13:05.460Z,94960.28
2022-09-26T03:15:35.314Z,94945.56
2022-09-26T03:18:07.775Z,94948.47
2022-09-26T03:20:36.138Z,94945.63
2022-09-26T03:23:04.632Z,94957.78
2022-09-26T03:25:32.446Z,94955.56
2022-09-26T03:28:05.723Z,94960.06
2022-09-26T03:30:33.605Z,94953.78
2022-09-26T03:33:21.557Z,94936.50
2022-09-26T03:35:49.085Z,94934.47
2022-09-26T03:38:16.100Z,94929.66
2022-09-26T03:40:49.935Z,94945.06
2022-09-26T03:43:36.528Z,94925.22
2022-09-26T03:46:07.598Z,94925.44
2022-09-26T03:48:36.070Z,94933.97
2022-09-26T03:51:05.168Z,94929.25
2022-09-26T03:53:37.158Z,94933.84
2022-09-26T03:56:12.346Z,94939.59
2022-09-26T03:58:39.685Z,94937.28
2022-09-26T04:01:15.061Z,94938.59
2022-09-26T04:03:50.072Z,94937.59
2022-09-26T04:06:20.255Z,94924.09
2022-09-26T04:08:50.629Z,94920.84
2022-09-26T04:11:20.303Z,94924.66
2022-09-26T04:13:52.458Z,94919.84
2022-09-26T04:16:23.891Z,94932.91
2022-09-26T04:18:57.491Z,94938.59
2022-09-26T04:21:27.291Z,94938.09
2022-09-26T04:23:54.654Z,94931.06
2022-09-26T04:26:24.385Z,94937.81
2022-09-26T04:28:54.997Z,94939.97
2022-09-26T04:31:26.272Z,94943.00
2022-09-26T04:34:00.334Z,94950.34
2022-09-26T04:36:27.714Z,94944.06
2022-09-26T04:38:54.515Z,94948.97
2022-09-26T04:41:22.189Z,94957.41
2022-09-26T04:43:49.841Z,94940.84
2022-09-26T04:46:28.210Z,94946.25
2022-09-26T04:48:59.876Z,94943.09
2022-09-26T04:51:28.515Z,94930.72
2022-09-26T04:53:55.916Z,94928.59
2022-09-26T04:56:26.876Z,94947.25
2022-09-26T04:58:56.614Z,94916.41
2022-09-26T05:01:26.472Z,94922.47
2022-09-26T05:04:22.781Z,94931.03
2022-09-26T05:06:52.161Z,94935.34
2022-09-26T05:09:27.192Z,94933.63
2022-09-26T05:12:00.074Z,94934.59
2022-09-26T05:14:27.229Z,94922.66
2022-09-26T05:16:54.993Z,94931.94
2022-09-26T05:19:22.805Z,94930.13
2022-09-26T05:22:08.540Z,94916.38
2022-09-26T05:24:53.824Z,94919.84
2022-09-26T05:27:21.275Z,94919.28
2022-09-26T05:29:48.222Z,94905.16
2022-09-26T05:32:17.678Z,94922.19
2022-09-26T05:34:44.941Z,94923.72
2022-09-26T05:37:14.937Z,94906.28
2022-09-26T05:40:00.512Z,94908.22
2022-09-26T05:42:29.047Z,94902.69
2022-09-26T05:44:55.812Z,94901.47
2022-09-26T05:47:23.543Z,94897.97
2022-09-26T05:49:50.307Z,94895.44
2022-09-26T05:52:19.732Z,94912.94
2022-09-26T05:54:46.592Z,94929.13
2022-09-26T05:57:31.784Z,94920.94
2022-09-26T05:59:58.940Z,94910.16
2022-09-26T06:02:25.673Z,94912.00
2022-09-26T06:05:09.444Z,94912.75
2022-09-26T06:07:39.005Z,94923.28
2022-09-26T06:10:10.237Z,94912.50
2022-09-26T06:13:02.324Z,94913.16
2022-09-26T06:15:31.848Z,94927.97
2022-09-26T06:18:04.833Z,94939.94
2022-09-26T06:20:33.852Z,94926.06
2022-09-26T06:23:01.791Z,94932.88
2022-09-26T06:25:29.461Z,94935.97
2022-09-26T06:28:00.572Z,94924.63
2022-09-26T06:30:29.416Z,94919.16
2022-09-26T06:33:03.988Z,94921.94
2022-09-26T06:35:38.463Z,94923.28
2022-09-26T06:38:10.115Z,94917.00
2022-09-26T06:40:37.424Z,94923.28
2022-09-26T06:43:05.194Z,94921.81
2022-09-26T06:45:50.996Z,94907.25
2022-09-26T06:48:36.357Z,94909.09
2022-09-26T06:51:20.114Z,94897.75
2022-09-26T06:53:47.410Z,94907.50
2022-09-26T06:56:19.302Z,94908.84
2022-09-26T06:58:48.803Z,94907.63
2022-09-26T07:01:16.108Z,94916.25
2022-09-26T07:03:45.589Z,94913.88
2022-09-26T07:06:31.423Z,94901.31
2022-09-26T07:09:02.649Z,94907.25
2022-09-26T07:12:13.036Z,94910.50
2022-09-26T07:14:34.771Z,94915.66
2022-09-26T07:17:15.610Z,94914.03
2022-09-26T07:20:03.327Z,94909.63
2022-09-26T07:23:11.366Z,94898.19
2022-09-26T07:25:40.844Z,94901.22
2022-09-26T07:28:09.493Z,94899.53
2022-09-26T07:30:45.790Z,94902.41
2022-09-26T07:33:34.250Z,94902.53
2022-09-26T07:36:06.656Z,94910.72
2022-09-26T07:38:33.742Z,94910.50
2022-09-26T07:41:01.173Z,94905.34
2022-09-26T07:44:16.878Z,94904.47
2022-09-26T07:46:37.623Z,94910.06
2022-09-26T07:49:23.134Z,94904.84
2022-09-26T07:51:56.983Z,94898.78
2022-09-26T07:54:31.244Z,94880.63
2022-09-26T07:57:17.090Z,94884.03
2022-09-26T08:00:13.856Z,94887.69
2022-09-26T08:02:46.743Z,94867.78
2022-09-26T08:05:20.020Z,94850.78
2022-09-26T08:07:49.276Z,94849.97
2022-09-26T08:10:48.111Z,94858.56
2022-09-26T08:13:33.240Z,94852.59
2022-09-26T08:16:24.799Z,94851.28
2022-09-26T08:18:55.706Z,94845.16
2022-09-26T08:21:24.359Z,94838.44
2022-09-26T08:23:54.271Z,94849.91
2022-09-26T08:26:33.017Z,94853.75
2022-09-26T08:29:23.723Z,94839.16
2022-09-26T08:31:54.773Z,94829.72
2022-09-26T08:34:25.279Z,94824.22
2022-09-26T08:37:13.583Z,94816.63
2022-09-26T08:40:00.865Z,94806.44
2022-09-26T08:43:33.697Z,94804.66
2022-09-26T08:46:53.063Z,94823.13
2022-09-26T08:49:45.160Z,94820.94
2022-09-26T08:52:28.350Z,94800.31
2022-09-26T08:55:02.300Z,94806.88
2022-09-26T08:57:42.158Z,94805.66
2022-09-26T09:00:15.093Z,94794.44
2022-09-26T09:03:04.496Z,94802.66
2022-09-26T09:05:35.712Z,94798.66
2022-09-26T09:08:08.056Z,94795.22
2022-09-26T09:11:13.321Z,94795.91
2022-09-26T09:14:00.536Z,94790.44
2022-09-26T09:17:17.838Z,94783.63
2022-09-26T09:20:14.517Z,94774.63
2022-09-26T09:23:34.897Z,94758.59
2022-09-26T09:29:40.042Z,94779.00
2022-09-26T09:32:35.154Z,94773.47
2022-09-26T09:35:41.434Z,94763.38
2022-09-26T09:38:32.836Z,94741.47
2022-09-26T09:41:15.293Z,94761.81
2022-09-26T09:43:59.095Z,94746.59
2022-09-26T09:46:31.248Z,94742.53
2022-09-26T09:49:00.561Z,94748.94
2022-09-26T09:51:52.694Z,94751.59
2022-09-26T09:54:42.580Z,94749.09
2022-09-26T09:57:36.667Z,94737.41
2022-09-26T10:00:20.483Z,94730.97
2022-09-26T10:03:42.447Z,94720.16
2022-09-26T10:06:44.776Z,94712.56
2022-09-26T10:09:39.416Z,94707.63
2022-09-26T10:12:22.545Z,94695.22
2022-09-26T10:15:20.828Z,94696.63
2022-09-26T10:18:24.590Z,94698.72
2022-09-26T10:21:08.898Z,94697.59
2022-09-26T10:23:45.460Z,94710.56
2022-09-26T10:26:30.578Z,94708.94
2022-09-26T10:29:01.143Z,94704.53
2022-09-26T10:31:30.323Z,94708.81
2022-09-26T10:34:22.165Z,94705.31
2022-09-26T10:36:49.341Z,94695.13
2022-09-26T10:39:35.429Z,94691.13
2022-09-26T10:42:04.366Z,94683.06
2022-09-26T10:44:39.552Z,94676.88
2022-09-26T10:47:12.731Z,94675.88
2022-09-26T10:49:55.876Z,94672.13
2022-09-26T10:52:47.051Z,94663.19
2022-09-26T10:55:25.434Z,94657.16
2022-09-26T10:57:58.784Z,94634.63
2022-09-26T11:00:51.719Z,94655.22
2022-09-26T11:03:26.434Z,94631.88
2022-09-26T11:06:40.538Z,94639.09
2022-09-26T11:09:38.465Z,94636.34
2022-09-26T11:12:41.479Z,94635.75
2022-09-26T11:15:13.803Z,94626.34
2022-09-26T11:17:43.438Z,94631.50
2022-09-26T11:20:18.035Z,94632.06
2022-09-26T11:23:04.980Z,94632.78
2022-09-26T11:25:44.975Z,94619.81
2022-09-26T11:28:19.381Z,94620.72
2022-09-26T11:31:35.485Z,94618.09
2022-09-26T11:34:36.209Z,94612.38
2022-09-26T11:37:18.715Z,94603.88
2022-09-26T11:40:08.548Z,94607.25
2022-09-26T11:43:13.712Z,94593.78
2022-09-26T11:46:17.339Z,94593.91
2022-09-26T11:49:01.676Z,94586.97
2022-09-26T11:51:57.107Z,94580.03
2022-09-26T11:54:46.400Z,94574.63
2022-09-26T11:57:48.590Z,94568.44
2022-09-26T12:00:26.528Z,94576.16
2022-09-26T12:03:36.166Z,94571.13
2022-09-26T12:06:14.623Z,94562.19
2022-09-26T12:09:15.772Z,94561.06
2022-09-26T12:12:04.134Z,94558.00
2022-09-26T12:15:02.212Z,94559.97
2022-09-26T12:17:35.409Z,94554.53
2022-09-26T12:20:20.246Z,94549.16
2022-09-26T12:22:53.459Z,94552.25
2022-09-26T12:25:56.056Z,94546.44
2022-09-26T12:28:58.264Z,94538.69
2022-09-26T12:31:44.068Z,94539.06
2022-09-26T12:34:30.237Z,94534.41
2022-09-26T12:37:05.750Z,94533.66
2022-09-26T12:40:11.467Z,94529.78
2022-09-26T12:43:05.452Z,94531.28
2022-09-26T12:46:14.244Z,94522.06
2022-09-26T12:49:06.830Z,94511.25
2022-09-26T12:51:49.800Z,94506.66
2022-09-26T12:57:52.431Z,94505.09
2022-09-26T13:00:22.143Z,94498.91
2022-09-26T13:03:15.916Z,94500.41
2022-09-26T13:05:51.478Z,94486.56
2022-09-26T13:08:46.935Z,94481.19
2022-09-26T13:11:32.957Z,94484.66
2022-09-26T13:14:31.903Z,94476.53
2022-09-26T13:17:16.599Z,94481.91
2022-09-26T13:19:51.571Z,94484.19
2022-09-26T13:22:31.642Z,94484.53
2022-09-26T13:25:08.114Z,94475.69
2022-09-26T13:27:50.045Z,94476.47
2022-09-26T13:30:25.258Z,94460.66
2022-09-26T13:33:00.288Z,94471.84
2022-09-26T13:35:31.798Z,94467.97
2022-09-26T13:38:22.127Z,94463.31
2022-09-26T13:40:57.913Z,94460.56
2022-09-26T13:43:43.615Z,94461.78
2022-09-26T13:46:32.389Z,94464.88
2022-09-26T13:49:08.428Z,94463.69
2022-09-26T13:51:49.919Z,94459.41
2022-09-26T13:54:36.404Z,94462.53
2022-09-26T13:57:36.556Z,94456.00
2022-09-26T14:00:23.327Z,94450.97
2022-09-26T14:03:17.719Z,94449.75
2022-09-26T14:05:44.696Z,94449.72
2022-09-26T14:08:45.273Z,94440.19
2022-09-26T14:11:28.674Z,94445.97
2022-09-26T14:14:18.228Z,94441.69
2022-09-26T14:16:53.745Z,94447.09
2022-09-26T14:19:45.144Z,94447.03
2022-09-26T14:22:20.739Z,94441.28
2022-09-26T14:24:48.596Z,94449.78
2022-09-26T14:27:18.251Z,94461.31
2022-09-26T14:30:06.982Z,94457.88
2022-09-26T14:32:45.460Z,94456.91
2022-09-26T14:35:19.491Z,94448.47
2022-09-26T14:37:50.631Z,94456.31
2022-09-26T14:40:26.095Z,94461.25
2022-09-26T14:42:55.210Z,94449.25
2022-09-26T14:45:31.048Z,94448.00
2022-09-26T14:48:13.657Z,94456.72
2022-09-26T14:50:48.053Z,94450.81
2022-09-26T14:53:24.845Z,94444.31
2022-09-26T14:56:12.255Z,94444.19
2022-09-26T14:58:39.636Z,94445.00
2022-09-26T15:01:25.361Z,94441.44
2022-09-26T15:04:03.181Z,94441.69
2022-09-26T15:06:36.110Z,94432.19
2022-09-26T15:09:11.377Z,94431.72
2022-09-26T15:11:59.849Z,94438.97
2022-09-26T15:14:41.154Z,94429.44
2022-09-26T15:17:17.939Z,94427.44
2022-09-26T15:19:52.285Z,94427.81
2022-09-26T15:22:23.995Z,94440.91
2022-09-26T15:24:55.580Z,94410.84
2022-09-26T15:27:29.358Z,94441.38
2022-09-26T15:30:14.212Z,94435.16
2022-09-26T15:32:41.412Z,94433.81
2022-09-26T15:35:15.447Z,94433.88
2022-09-26T15:37:43.182Z,94424.59
2022-09-26T15:40:21.613Z,94439.00
2022-09-26T15:43:08.048Z,94430.91
2022-09-26T15:45:47.634Z,94428.69
2022-09-26T15:48:20.359Z,94424.53
2022-09-26T15:50:54.891Z,94429.50
2022-09-26T15:53:35.574Z,94430.44
2022-09-26T15:56:02.335Z,94433.28
2022-09-26T15:58:43.088Z,94438.53
2022-09-26T16:01:15.599Z,94425.53
2022-09-26T16:03:45.941Z,94428.97
2022-09-26T16:06:22.407Z,94436.66
2022-09-26T16:09:00.430Z,94429.44
2022-09-26T16:11:28.026Z,94437.00
2022-09-26T16:13:56.661Z,94426.97
2022-09-26T16:16:32.142Z,94427.03
2022-09-26T16:19:03.175Z,94421.75
2022-09-26T16:21:34.014Z,94427.03
2022-09-26T16:24:22.445Z,94431.94
2022-09-26T16:26:51.148Z,94430.06
2022-09-26T16:29:34.097Z,94402.25
2022-09-26T16:32:03.323Z,94420.84
2022-09-26T16:34:30.659Z,94417.91
2022-09-26T16:36:58.504Z,94419.44
2022-09-26T16:39:28.717Z,94416.13
2022-09-26T16:42:02.654Z,94408.72
2022-09-26T16:44:41.376Z,94412.91
2022-09-26T16:47:30.820Z,94412.47
2022-09-26T16:50:16.963Z,94419.22
2022-09-26T16:52:45.876Z,94409.88
2022-09-26T16:55:13.069Z,94415.19
2022-09-26T16:57:52.457Z,94411.06
2022-09-26T17:00:40.456Z,94409.50
2022-09-26T17:03:34.693Z,94420.13
2022-09-26T17:06:01.960Z,94415.25
2022-09-26T17:08:28.736Z,94424.81
2022-09-26T17:10:59.945Z,94422.78
2022-09-26T17:13:28.960Z,94429.56
2022-09-26T17:15:58.274Z,94427.56
2022-09-26T17:18:29.190Z,94419.44
2022-09-26T17:20:56.940Z,94407.63
2022-09-26T17:23:41.169Z,94396.72
2022-09-26T17:26:18.169Z,94423.00
2022-09-26T17:28:45.676Z,94427.34
2022-09-26T17:31:19.802Z,94424.25
2022-09-26T17:33:52.813Z,94424.53
2022-09-26T17:36:26.201Z,94419.56
2022-09-26T17:38:54.635Z,94422.13
2022-09-26T17:41:22.866Z,94409.47
2022-09-26T17:43:55.496Z,94418.63
2022-09-26T17:46:23.739Z,94415.34
2022-09-26T17:48:50.601Z,94417.06
2022-09-26T17:51:17.926Z,94432.41
2022-09-26T17:53:50.434Z,94425.66
2022-09-26T17:56:19.541Z,94423.72
2022-09-26T17:58:48.632Z,94424.72
2022-09-26T18:01:24.335Z,94423.88
2022-09-26T18:03:55.764Z,94421.16
2022-09-26T18:06:31.755Z,94417.38
2022-09-26T18:09:05.230Z,94415.16
2022-09-26T18:11:34.602Z,94413.81
2022-09-26T18:14:04.732Z,94407.13
2022-09-26T18:16:31.797Z,94404.44
2022-09-26T18:19:01.099Z,94415.16
2022-09-26T18:21:32.191Z,94416.81
2022-09-26T18:24:02.556Z,94406.72
2022-09-26T18:26:33.578Z,94404.75
2022-09-26T18:29:06.378Z,94397.41
2022-09-26T18:31:41.172Z,94406.00
2022-09-26T18:34:20.136Z,94398.72
2022-09-26T18:36:51.632Z,94401.34
2022-09-26T18:39:18.949Z,94398.38
2022-09-26T18:41:46.458Z,94400.03
2022-09-26T18:44:17.331Z,94400.03
2022-09-26T18:46:46.925Z,94399.34
2022-09-26T18:49:14.987Z,94401.00
2022-09-26T18:51:42.355Z,94402.06
2022-09-26T18:54:15.527Z,94402.91
2022-09-26T18:57:01.881Z,94402.50
2022-09-26T18:59:32.374Z,94415.94
2022-09-26T19:02:02.119Z,94412.13
2022-09-26T19:04:33.501Z,94413.78
2022-09-26T19:07:05.143Z,94421.41
2022-09-26T19:09:34.756Z,94413.03
2022-09-26T19:12:03.319Z,94411.75
2022-09-26T19:14:31.577Z,94412.06
2022-09-26T19:16:59.217Z,94425.47
2022-09-26T19:19:28.683Z,94417.78
2022-09-26T19:21:59.435Z,94415.41
2022-09-26T19:24:40.506Z,94416.16
2022-09-26T19:27:17.114Z,94419.84
2022-09-26T19:29:59.018Z,94409.44
2022-09-26T19:32:40.480Z,94391.66
2022-09-26T19:35:19.815Z,94414.50
2022-09-26T19:37:47.855Z,94411.91
2022-09-26T19:40:16.888Z,94391.44
2022-09-26T19:42:43.915Z,94402.69
2022-09-26T19:45:12.487Z,94403.63
2022-09-26T19:47:43.232Z,94400.91
2022-09-26T19:50:16.126Z,94399.47
2022-09-26T19:52:43.237Z,94400.50
2022-09-26T19:55:26.529Z,94414.78
2022-09-26T19:57:54.554Z,94402.19
2022-09-26T20:00:21.485Z,94406.69
2022-09-26T20:02:51.608Z,94414.69
2022-09-26T20:05:28.006Z,94409.28
2022-09-26T20:07:54.937Z,94410.47
2022-09-26T20:10:25.212Z,94413.31
2022-09-26T20:12:52.444Z,94413.31
2022-09-26T20:15:20.556Z,94404.25
2022-09-26T20:17:48.623Z,94416.94
2022-09-26T20:20:24.251Z,94396.34
2022-09-26T20:22:53.148Z,94402.28
2022-09-26T20:25:28.021Z,94396.16
2022-09-26T20:27:55.580Z,94384.09
2022-09-26T20:30:41.051Z,94363.56
2022-09-26T20:33:09.758Z,94368.59
2022-09-26T20:35:41.498Z,94376.09
2022-09-26T20:38:18.156Z,94353.00
2022-09-26T20:40:46.281Z,94353.75
2022-09-26T20:43:20.508Z,94359.81
2022-09-26T20:45:47.746Z,94373.41
2022-09-26T20:48:23.088Z,94361.06
2022-09-26T20:50:51.069Z,94362.06
2022-09-26T20:53:19.151Z,94357.84
2022-09-26T20:55:50.201Z,94353.28
2022-09-26T20:58:17.019Z,94335.13
2022-09-26T21:00:44.705Z,94329.97
2022-09-26T21:03:12.763Z,94303.03
2022-09-26T21:05:39.949Z,94335.31
2022-09-26T21:08:21.096Z,94331.13
2022-09-26T21:10:48.009Z,94320.84
2022-09-26T21:13:14.831Z,94325.16
2022-09-26T21:15:43.277Z,94319.09
2022-09-26T21:18:24.179Z,94294.84
2022-09-26T21:20:52.259Z,94294.03
2022-09-26T21:23:43.531Z,94311.78
2022-09-26T21:26:22.771Z,94280.03
2022-09-26T21:28:50.656Z,94307.25
2022-09-26T21:31:19.981Z,94306.31
2022-09-26T21:33:46.929Z,94313.97
2022-09-26T21:36:13.922Z,94299.88
2022-09-26T21:38:40.668Z,94313.19
2022-09-26T21:41:09.690Z,94291.03
2022-09-26T21:43:42.795Z,94287.69
2022-09-26T21:46:09.696Z,94320.31
2022-09-26T21:48:36.664Z,94293.72
2022-09-26T21:51:04.043Z,94296.50
2022-09-26T21:53:41.435Z,94280.41
2022-09-26T21:56:16.204Z,94274.47
2022-09-26T21:58:44.105Z,94281.00
2022-09-26T22:01:10.954Z,94274.78
2022-09-26T22:03:37.886Z,94265.16
2022-09-26T22:06:07.572Z,94268.44
2022-09-26T22:08:35.344Z,94281.59
2022-09-26T22:11:05.165Z,94252.38
2022-09-26T22:13:34.289Z,94259.38
2022-09-26T22:16:08.557Z,94263.00
2022-09-26T22:18:36.857Z,94262.41
2022-09-26T22:21:04.728Z,94237.63
2022-09-26T22:23:33.510Z,94253.25
2022-09-26T22:26:00.645Z,94248.44
2022-09-26T22:28:28.009Z,94240.09
2022-09-26T22:30:54.855Z,94235.09
2022-09-26T22:33:22.659Z,94263.44
2022-09-26T22:35:50.541Z,94245.25
2022-09-26T22:38:18.291Z,94237.25
2022-09-26T22:40:46.298Z,94250.44
2022-09-26T22:43:13.302Z,94247.25
2022-09-26T22:45:40.148Z,94244.63
2022-09-26T22:48:07.036Z,94254.56
2022-09-26T22:50:33.775Z,94255.31
2022-09-26T22:53:00.503Z,94259.75
2022-09-26T22:55:27.411Z,94245.31
2022-09-26T22:57:54.093Z,94248.53
2022-09-26T23:00:21.031Z,94252.53
2022-09-26T23:02:47.825Z,94239.72
2022-09-26T23:05:14.595Z,94240.56
2022-09-26T23:07:41.529Z,94228.53
2022-09-26T23:10:10.422Z,94222.47
2022-09-26T23:12:40.503Z,94214.94
2022-09-26T23:15:08.685Z,94223.09
2022-09-26T23:17:35.715Z,94215.19
2022-09-26T23:20:02.603Z,94213.59
2022-09-26T23:22:29.388Z,94202.69
2022-09-26T23:24:56.280Z,94184.25
2022-09-26T23:27:22.932Z,94197.34
2022-09-26T23:29:49.689Z,94200.63
2022-09-26T23:32:16.922Z,94176.22
2022-09-26T23:34:43.667Z,94179.50
2022-09-26T23:37:10.508Z,94172.69
2022-09-26T23:39:37.254Z,94184.97
2022-09-26T23:42:04.164Z,94195.81
2022-09-26T23:44:32.317Z,94175.25
2022-09-26T23:47:02.559Z,94174.38
2022-09-26T23:49:29.348Z,94189.41
2022-09-26T23:51:56.456Z,94175.56
2022-09-26T23:54:23.254Z,94170.06
2022-09-26T23:56:50.056Z,94187.50
2022-09-26T23:59:16.882Z,94169.88
